Time;durP1;ratioP1;P1;durP2;ratioP2;P2;SDS_P1;SDS_P2;PMS_P1;PMS_P2;Temp;Humidity;BMP_temperature;BMP_pressure;BME280_temperature;BME280_humidity;BME280_pressure;Samples;Min_cycle;Max_cycle;Signal;HPM_P1;HPM_P2
2023/06/19 00:01:46;;;;;;;5.28;4.60;;;22.40;99.90;;;;;;12427186;28;20038;-39
2023/06/19 00:07:48;;;;;;;7.03;4.88;;;22.30;99.90;;;;;;12398971;28;20092;-39
2023/06/19 00:13:50;;;;;;;7.10;4.80;;;22.40;99.90;;;;;;12415406;28;20405;-39
2023/06/19 00:19:53;;;;;;;6.15;4.60;;;22.60;99.90;;;;;;12409974;28;20402;-39
2023/06/19 00:25:55;;;;;;;6.90;4.60;;;22.80;99.90;;;;;;12401336;28;20503;-38
2023/06/19 00:31:57;;;;;;;7.68;4.78;;;22.90;99.90;;;;;;12418475;28;20065;-38
2023/06/19 00:38:01;;;;;;;7.97;4.95;;;22.90;99.90;;;;;;12419278;28;20406;-41
2023/06/19 00:44:03;;;;;;;7.35;4.80;;;23.00;99.90;;;;;;12414411;28;20053;-38
2023/06/19 00:50:06;;;;;;;6.72;5.07;;;23.00;99.90;;;;;;12414617;28;20049;-38
2023/06/19 00:56:08;;;;;;;6.53;4.40;;;22.90;99.90;;;;;;12396475;28;20050;-39
2023/06/19 01:02:10;;;;;;;7.13;4.65;;;22.90;99.90;;;;;;12415033;28;20391;-38
2023/06/19 01:08:37;;;;;;;9.10;5.40;;;22.90;99.90;;;;;;12402477;28;20049;-38
2023/06/19 01:14:54;;;;;;;8.57;5.30;;;23.00;99.90;;;;;;12416718;28;20132;-38
2023/06/19 01:20:56;;;;;;;7.10;5.07;;;22.90;99.90;;;;;;12416170;28;20133;-38
2023/06/19 01:26:58;;;;;;;6.80;5.00;;;22.60;99.90;;;;;;12414596;28;20057;-38
2023/06/19 01:33:25;;;;;;;7.50;4.93;;;22.40;99.90;;;;;;12408082;28;20050;-38
2023/06/19 01:39:28;;;;;;;8.68;5.00;;;22.30;99.90;;;;;;12410142;28;20054;-38
2023/06/19 01:45:30;;;;;;;6.67;5.13;;;22.30;99.90;;;;;;12417881;28;20042;-40
2023/06/19 01:51:32;;;;;;;6.10;4.70;;;22.30;99.90;;;;;;12406652;28;20046;-39
2023/06/19 01:57:36;;;;;;;9.25;4.90;;;22.40;99.90;;;;;;12390385;28;20466;-38
2023/06/19 02:03:38;;;;;;;8.38;5.50;;;22.50;99.90;;;;;;12413378;28;20076;-38
2023/06/19 02:09:41;;;;;;;7.57;4.85;;;22.60;99.90;;;;;;12414038;28;20053;-38
2023/06/19 02:15:43;;;;;;;7.15;5.15;;;22.60;99.90;;;;;;12418867;28;20053;-38
2023/06/19 02:21:45;;;;;;;7.65;5.18;;;22.60;99.90;;;;;;12397326;28;20066;-38
2023/06/19 02:27:47;;;;;;;6.78;5.07;;;22.60;99.90;;;;;;12412403;28;20442;-38
2023/06/19 02:33:49;;;;;;;8.57;5.10;;;22.60;99.90;;;;;;12408509;28;20086;-38
2023/06/19 02:39:51;;;;;;;8.35;4.85;;;22.50;99.90;;;;;;12410901;28;20046;-39
2023/06/19 02:45:53;;;;;;;6.88;5.07;;;22.50;99.90;;;;;;12416794;28;20073;-38
2023/06/19 02:51:56;;;;;;;8.10;5.80;;;22.40;99.90;;;;;;12410350;28;20509;-38
2023/06/19 02:58:00;;;;;;;8.02;5.00;;;22.20;99.90;;;;;;12416048;28;20046;-38
2023/06/19 03:04:02;;;;;;;6.38;5.13;;;22.20;99.90;;;;;;12402146;28;20113;-39
2023/06/19 03:10:04;;;;;;;6.30;4.63;;;22.20;99.90;;;;;;12420454;28;20080;-39
2023/06/19 03:16:06;;;;;;;7.35;5.10;;;22.20;99.90;;;;;;12378683;28;20516;-38
2023/06/19 03:22:08;;;;;;;7.03;5.32;;;21.90;99.90;;;;;;12381234;28;20113;-39
2023/06/19 03:28:10;;;;;;;6.97;4.88;;;21.70;99.90;;;;;;12365442;28;20053;-38
2023/06/19 03:34:12;;;;;;;6.35;4.80;;;21.60;99.90;;;;;;12408662;28;20069;-38
2023/06/19 03:40:14;;;;;;;8.43;5.50;;;21.70;99.90;;;;;;12427523;28;20048;-38
2023/06/19 03:46:16;;;;;;;6.97;5.15;;;21.60;99.90;;;;;;12419215;28;20418;-38
2023/06/19 03:52:19;;;;;;;6.60;4.90;;;21.60;99.90;;;;;;12398726;28;20085;-39
2023/06/19 03:58:21;;;;;;;6.85;4.95;;;21.50;99.90;;;;;;12403218;28;20049;-39
2023/06/19 04:04:23;;;;;;;6.25;5.05;;;21.40;99.90;;;;;;12401845;28;20057;-38
2023/06/19 04:10:24;;;;;;;6.25;5.30;;;21.40;99.90;;;;;;12410011;28;20061;-39
2023/06/19 04:16:27;;;;;;;9.55;5.22;;;21.40;99.90;;;;;;12426458;28;20591;-38
2023/06/19 04:22:29;;;;;;;8.10;5.05;;;21.50;99.90;;;;;;12409706;28;20530;-39
2023/06/19 04:28:31;;;;;;;9.93;5.63;;;21.70;99.90;;;;;;12380598;28;1179151;-39
2023/06/19 04:34:33;;;;;;;8.23;5.65;;;21.80;99.90;;;;;;12404410;28;20084;-38
2023/06/19 04:40:35;;;;;;;7.45;5.30;;;22.00;99.90;;;;;;12414336;28;20564;-39
2023/06/19 04:46:41;;;;;;;7.47;5.50;;;22.10;99.90;;;;;;12414530;28;20050;-38
2023/06/19 04:52:43;;;;;;;6.63;4.97;;;22.20;99.90;;;;;;12413677;28;20047;-38
2023/06/19 04:58:48;;;;;;;7.78;5.60;;;22.30;99.90;;;;;;12409597;28;20588;-38
2023/06/19 05:04:50;;;;;;;6.75;5.57;;;22.40;99.90;;;;;;12405869;28;20085;-38
2023/06/19 05:10:53;;;;;;;11.23;6.15;;;22.40;99.90;;;;;;12393639;28;20054;-39
2023/06/19 05:16:55;;;;;;;8.70;5.30;;;22.40;99.90;;;;;;12417261;28;20058;-39
2023/06/19 05:22:57;;;;;;;6.25;5.07;;;22.50;99.90;;;;;;12400103;28;20457;-38
2023/06/19 05:28:59;;;;;;;6.40;5.22;;;22.60;99.90;;;;;;12398277;28;20061;-39
2023/06/19 05:35:02;;;;;;;6.72;4.97;;;22.70;99.90;;;;;;12412278;28;20042;-39
2023/06/19 05:41:04;;;;;;;9.77;4.90;;;22.70;99.90;;;;;;12422869;28;20054;-38
2023/06/19 05:47:06;;;;;;;6.30;4.60;;;22.60;99.90;;;;;;12393919;28;20042;-38
2023/06/19 05:53:08;;;;;;;9.60;5.35;;;22.70;99.90;;;;;;12406495;28;20510;-38
2023/06/19 05:59:10;;;;;;;6.70;4.72;;;22.70;99.90;;;;;;12404297;28;20257;-38
2023/06/19 06:05:12;;;;;;;8.07;5.40;;;22.80;99.90;;;;;;12415955;28;20430;-38
2023/06/19 06:11:14;;;;;;;9.88;5.68;;;22.80;99.90;;;;;;12402244;28;20069;-40
2023/06/19 06:17:16;;;;;;;6.03;4.43;;;22.80;99.90;;;;;;12425529;28;20054;-39
2023/06/19 06:23:18;;;;;;;6.53;4.90;;;22.80;99.90;;;;;;12407053;28;20057;-40
2023/06/19 06:29:20;;;;;;;6.30;4.53;;;22.80;99.90;;;;;;12400134;28;20112;-39
2023/06/19 06:35:22;;;;;;;8.57;4.38;;;22.80;99.90;;;;;;12411857;28;20046;-39
2023/06/19 06:41:23;;;;;;;6.38;4.30;;;22.80;99.90;;;;;;12418290;28;20068;-39
2023/06/19 06:47:25;;;;;;;5.82;4.00;;;22.90;99.90;;;;;;12395657;28;20511;-38
2023/06/19 06:53:28;;;;;;;8.13;3.70;;;23.10;99.90;;;;;;12419600;28;20053;-38
2023/06/19 06:59:30;;;;;;;6.55;3.42;;;23.20;99.90;;;;;;12394881;28;20509;-39
2023/06/19 07:05:32;;;;;;;5.93;3.28;;;23.30;99.90;;;;;;12398419;28;20037;-40
2023/06/19 07:11:34;;;;;;;6.05;3.40;;;23.40;99.90;;;;;;12401935;28;20711;-39
2023/06/19 07:17:36;;;;;;;4.72;3.15;;;23.50;99.90;;;;;;12407423;28;20058;-39
2023/06/19 07:23:40;;;;;;;6.03;3.40;;;23.60;99.90;;;;;;12399805;28;20072;-40
2023/06/19 07:29:44;;;;;;;6.25;3.08;;;23.40;99.90;;;;;;12400287;28;20134;-38
2023/06/19 07:35:46;;;;;;;4.53;3.03;;;23.30;99.90;;;;;;12412384;28;20414;-39
2023/06/19 07:41:48;;;;;;;3.92;3.15;;;23.30;99.90;;;;;;12422530;28;20045;-38
2023/06/19 07:47:56;;;;;;;6.22;3.13;;;23.40;99.90;;;;;;12410043;28;20050;-39
2023/06/19 07:53:58;;;;;;;5.38;2.80;;;23.30;99.90;;;;;;12411624;28;20050;-39
2023/06/19 08:00:05;;;;;;;6.70;3.50;;;23.00;99.90;;;;;;12423040;28;20050;-39
2023/06/19 08:06:07;;;;;;;5.43;3.67;;;22.80;99.90;;;;;;12400384;28;20077;-39
2023/06/19 08:12:09;;;;;;;4.78;3.20;;;22.80;99.90;;;;;;12433711;28;20054;-38
2023/06/19 08:18:11;;;;;;;5.80;3.00;;;22.80;99.90;;;;;;12418429;28;20053;-38
2023/06/19 08:24:13;;;;;;;6.22;3.67;;;23.00;99.90;;;;;;12409426;28;20052;-40
2023/06/19 08:30:16;;;;;;;5.65;2.97;;;22.90;99.90;;;;;;12414630;28;20062;-37
2023/06/19 08:36:18;;;;;;;4.63;2.55;;;22.60;99.90;;;;;;12427173;28;20136;-37
2023/06/19 08:42:21;;;;;;;4.70;2.40;;;22.50;99.90;;;;;;12412947;28;20700;-40
2023/06/19 08:48:22;;;;;;;4.22;2.30;;;22.60;99.90;;;;;;12418291;28;20456;-39
2023/06/19 08:54:25;;;;;;;4.88;3.03;;;22.50;99.90;;;;;;12404925;28;20038;-39
2023/06/19 09:00:29;;;;;;;4.63;2.83;;;22.60;99.90;;;;;;12405999;28;20050;-39
2023/06/19 09:06:31;;;;;;;4.38;2.90;;;22.70;99.90;;;;;;12407934;28;20811;-39
2023/06/19 09:12:34;;;;;;;4.57;3.00;;;22.90;99.90;;;;;;12403140;28;20080;-38
2023/06/19 09:18:44;;;;;;;3.38;2.63;;;23.20;99.90;;;;;;12405019;28;20068;-40
2023/06/19 09:24:47;;;;;;;4.38;3.00;;;23.30;99.90;;;;;;12397666;28;20034;-39
2023/06/19 09:30:57;;;;;;;;;;;22.90;99.90;;;;;;12400607;28;20065;-38
2023/06/19 09:36:59;;;;;;;4.80;3.05;;;23.00;99.90;;;;;;12417728;28;19925;-39
2023/06/19 09:43:03;;;;;;;5.85;3.63;;;23.10;99.90;;;;;;12398909;28;20089;-40
2023/06/19 09:49:06;;;;;;;5.43;3.00;;;23.30;99.90;;;;;;12414162;28;20048;-39
2023/06/19 09:55:12;;;;;;;4.60;3.22;;;23.50;99.90;;;;;;12405868;28;20056;-40
2023/06/19 10:01:16;;;;;;;5.38;2.97;;;23.40;99.90;;;;;;12417778;28;20510;-40
2023/06/19 10:07:33;;;;;;;5.30;2.72;;;23.90;99.90;;;;;;12409781;28;20042;-39
2023/06/19 10:13:41;;;;;;;3.17;2.40;;;23.30;99.90;;;;;;12398024;28;20054;-38
2023/06/19 10:19:52;;;;;;;2.70;2.20;;;23.20;99.90;;;;;;12429344;28;20045;-40
2023/06/19 10:25:56;;;;;;;3.70;2.20;;;23.10;99.90;;;;;;12406053;28;20049;-38
2023/06/19 10:31:58;;;;;;;4.38;2.25;;;23.00;99.90;;;;;;12396464;28;20045;-39
2023/06/19 10:38:00;;;;;;;3.65;2.50;;;23.10;99.90;;;;;;12401338;28;20085;-39
2023/06/19 10:44:10;;;;;;;4.45;2.20;;;23.10;99.90;;;;;;12414345;28;20044;-39
2023/06/19 10:50:14;;;;;;;6.57;2.40;;;23.00;99.90;;;;;;12417035;28;20050;-38
2023/06/19 10:56:21;;;;;;;2.92;1.80;;;23.00;99.90;;;;;;12410922;28;20061;-40
2023/06/19 11:02:23;;;;;;;3.95;2.35;;;23.10;99.90;;;;;;12394160;28;20053;-38
2023/06/19 11:08:25;;;;;;;3.40;2.60;;;23.40;99.90;;;;;;12422932;28;20053;-40
2023/06/19 11:14:30;;;;;;;3.60;3.17;;;23.50;99.90;;;;;;12401233;28;20046;-40
2023/06/19 11:20:44;;;;;;;3.67;2.40;;;23.30;99.90;;;;;;12420486;28;20046;-39
2023/06/19 11:26:51;;;;;;;2.90;2.30;;;23.90;99.90;;;;;;12400857;28;20054;-38
2023/06/19 11:32:54;;;;;;;4.22;2.40;;;23.80;99.90;;;;;;12392329;28;20469;-38
2023/06/19 11:38:56;;;;;;;4.00;2.30;;;23.70;99.90;;;;;;12415520;28;20093;-38
2023/06/19 11:45:05;;;;;;;5.35;2.92;;;23.50;99.90;;;;;;12412608;28;20058;-38
2023/06/19 11:51:09;;;;;;;4.50;3.03;;;23.40;99.90;;;;;;12421208;28;20042;-38
2023/06/19 11:57:12;;;;;;;6.70;3.42;;;23.30;99.90;;;;;;12418972;28;20046;-39
2023/06/19 12:03:14;;;;;;;4.68;3.60;;;23.30;99.90;;;;;;12416817;28;20046;-39
2023/06/19 12:09:17;;;;;;;4.07;3.47;;;23.30;99.90;;;;;;12409522;28;20185;-38
2023/06/19 12:15:19;;;;;;;7.53;3.83;;;23.40;99.90;;;;;;12405949;28;20056;-39
2023/06/19 12:21:21;;;;;;;5.53;3.92;;;23.60;99.90;;;;;;12417966;28;20046;-39
2023/06/19 12:27:38;;;;;;;5.47;3.67;;;23.80;99.90;;;;;;12390031;28;20180;-38
2023/06/19 12:33:43;;;;;;;9.00;3.20;;;24.00;99.90;;;;;;12392949;28;20136;-39
2023/06/19 12:39:45;;;;;;;5.63;2.80;;;24.20;99.90;;;;;;12404500;28;20451;-38
2023/06/19 12:45:47;;;;;;;4.57;2.63;;;24.20;99.90;;;;;;12421101;28;20038;-39
2023/06/19 12:51:51;;;;;;;3.58;2.70;;;24.80;99.90;;;;;;12403902;28;20053;-40
2023/06/19 12:57:53;;;;;;;3.38;2.75;;;24.80;99.90;;;;;;12412610;28;20057;-40
2023/06/19 13:03:55;;;;;;;6.93;3.33;;;25.00;99.90;;;;;;12415616;28;20057;-39
2023/06/19 13:09:58;;;;;;;5.13;3.77;;;25.00;99.90;;;;;;12404054;28;20073;-39
2023/06/19 13:16:00;;;;;;;4.80;2.90;;;24.90;99.90;;;;;;12400287;28;20514;-40
2023/06/19 13:22:02;;;;;;;3.87;3.10;;;25.40;99.90;;;;;;12409603;28;20710;-39
2023/06/19 13:28:05;;;;;;;6.50;2.87;;;25.00;99.90;;;;;;12396044;28;20066;-40
2023/06/19 13:34:07;;;;;;;4.33;2.73;;;25.00;99.90;;;;;;12410134;28;20065;-40
2023/06/19 13:40:09;;;;;;;3.10;2.10;;;25.10;99.90;;;;;;12407076;28;20050;-39
2023/06/19 13:46:11;;;;;;;4.73;2.10;;;25.10;99.90;;;;;;12413843;28;20301;-39
2023/06/19 13:52:14;;;;;;;2.75;2.08;;;25.30;99.90;;;;;;12421484;28;20045;-39
2023/06/19 13:58:16;;;;;;;2.70;2.07;;;25.40;99.90;;;;;;12418941;28;20507;-39
2023/06/19 14:04:18;;;;;;;3.37;2.20;;;25.20;99.90;;;;;;12398392;28;20077;-38
2023/06/19 14:10:20;;;;;;;5.32;2.42;;;24.90;99.90;;;;;;12400586;28;20053;-39
2023/06/19 14:16:22;;;;;;;6.47;2.50;;;24.70;99.90;;;;;;12402153;28;20137;-40
2023/06/19 14:22:24;;;;;;;4.88;2.72;;;24.70;99.90;;;;;;12410703;28;20104;-38
2023/06/19 14:28:26;;;;;;;5.82;2.60;;;24.80;99.90;;;;;;12403778;28;20081;-39
2023/06/19 14:34:28;;;;;;;5.05;2.50;;;25.20;99.90;;;;;;12390316;28;20045;-39
2023/06/19 14:40:30;;;;;;;3.58;2.42;;;25.50;99.90;;;;;;12411885;28;20072;-40
2023/06/19 14:46:32;;;;;;;5.60;2.80;;;25.60;99.90;;;;;;12407841;28;20050;-41
2023/06/19 14:52:40;;;;;;;3.80;2.20;;;25.50;99.90;;;;;;12415669;28;20093;-41
2023/06/19 14:58:42;;;;;;;5.00;2.63;;;25.60;99.90;;;;;;12404104;28;20088;-40
2023/06/19 15:12:10;;;;;;;6.97;2.33;;;25.70;99.90;;;;;;12408880;28;20104;-41
2023/06/19 15:18:12;;;;;;;6.10;2.67;;;26.00;99.90;;;;;;12419027;28;20141;-39
2023/06/19 15:24:14;;;;;;;6.57;2.70;;;26.30;99.90;;;;;;12399440;28;20065;-40
2023/06/19 15:30:17;;;;;;;3.53;2.63;;;26.20;99.90;;;;;;12425426;28;20057;-41
2023/06/19 15:36:18;;;;;;;3.20;2.37;;;26.00;99.90;;;;;;12404362;28;20046;-39
2023/06/19 15:42:21;;;;;;;4.23;2.77;;;25.60;99.90;;;;;;12424583;28;20448;-40
2023/06/19 15:48:24;;;;;;;5.30;2.60;;;25.50;99.90;;;;;;12428733;28;20590;-41
2023/06/19 15:54:26;;;;;;;8.45;2.97;;;26.00;99.90;;;;;;12419473;28;20080;-40
2023/06/19 16:00:27;;;;;;;5.47;2.63;;;26.40;99.90;;;;;;12403389;28;20631;-40
2023/06/19 16:06:29;;;;;;;5.15;2.70;;;26.50;99.90;;;;;;12416073;28;20076;-40
2023/06/19 16:12:31;;;;;;;3.90;2.50;;;26.50;99.90;;;;;;12424832;28;20042;-40
2023/06/19 16:18:33;;;;;;;4.90;2.53;;;26.50;99.90;;;;;;12421199;28;20053;-40
2023/06/19 16:24:35;;;;;;;6.80;2.80;;;26.70;99.90;;;;;;12406025;28;20042;-41
2023/06/19 16:30:37;;;;;;;3.28;2.35;;;26.70;99.90;;;;;;12347842;28;20061;-39
2023/06/19 16:36:40;;;;;;;4.77;2.70;;;26.70;99.90;;;;;;12361983;28;20494;-40
2023/06/19 16:42:42;;;;;;;4.00;2.50;;;26.60;99.90;;;;;;12354058;28;20528;-40
2023/06/19 16:48:44;;;;;;;3.50;2.50;;;26.90;99.90;;;;;;12358043;28;20046;-40
2023/06/19 16:54:46;;;;;;;4.40;2.30;;;27.00;99.90;;;;;;12349744;28;20313;-40
2023/06/19 17:00:50;;;;;;;4.37;2.50;;;27.00;99.90;;;;;;12351255;28;20791;-40
2023/06/19 17:06:52;;;;;;;3.85;2.47;;;27.10;99.90;;;;;;12362294;28;20105;-40
2023/06/19 17:12:54;;;;;;;5.03;2.30;;;27.10;99.90;;;;;;12375942;28;20168;-39
2023/06/19 17:18:55;;;;;;;6.00;2.40;;;26.90;99.90;;;;;;12345560;28;20058;-39
2023/06/19 17:24:57;;;;;;;4.27;2.27;;;27.20;99.90;;;;;;12348057;28;20081;-40
2023/06/19 17:30:59;;;;;;;7.10;2.40;;;27.00;99.90;;;;;;12401637;28;20052;-40
2023/06/19 17:37:02;;;;;;;3.63;2.13;;;27.10;99.90;;;;;;12398963;28;20505;-40
2023/06/19 17:43:04;;;;;;;7.72;2.75;;;27.00;99.90;;;;;;12410501;28;20651;-40
2023/06/19 17:49:06;;;;;;;5.07;2.30;;;27.30;99.90;;;;;;12401622;28;20057;-40
2023/06/19 17:55:09;;;;;;;4.03;2.50;;;27.50;99.90;;;;;;12395318;28;20057;-39
2023/06/19 18:01:11;;;;;;;3.38;2.38;;;28.10;99.90;;;;;;12387321;28;20054;-39
2023/06/19 18:07:13;;;;;;;12.63;5.87;;;28.40;99.90;;;;;;12409475;28;20053;-39
2023/06/19 18:13:15;;;;;;;3.30;2.20;;;29.00;99.90;;;;;;12415340;28;20407;-39
2023/06/19 18:19:17;;;;;;;5.30;2.63;;;28.60;99.90;;;;;;12419573;28;20054;-38
2023/06/19 18:25:18;;;;;;;4.45;2.60;;;28.20;99.90;;;;;;12412515;28;20038;-39
2023/06/19 18:31:20;;;;;;;6.40;2.50;;;27.50;99.90;;;;;;12348439;28;20058;-38
2023/06/19 18:37:22;;;;;;;7.17;2.83;;;26.90;99.90;;;;;;12374919;28;20680;-37
2023/06/19 18:43:24;;;;;;;5.27;2.77;;;26.40;99.90;;;;;;12346042;28;20491;-38
2023/06/19 18:49:26;;;;;;;3.42;2.40;;;26.10;99.90;;;;;;12358858;28;20850;-38
2023/06/19 18:55:32;;;;;;;6.38;2.53;;;25.60;99.90;;;;;;12352546;28;20457;-37
2023/06/19 19:01:37;;;;;;;3.40;2.58;;;25.50;99.90;;;;;;12349423;28;20046;-37
2023/06/19 19:07:39;;;;;;;4.40;2.70;;;25.20;99.90;;;;;;12340518;28;20038;-38
2023/06/19 19:13:44;;;;;;;6.22;2.85;;;25.00;99.90;;;;;;12355535;28;20042;-38
2023/06/19 19:19:46;;;;;;;5.63;2.50;;;24.80;99.90;;;;;;12348987;28;20506;-39
2023/06/19 19:25:48;;;;;;;5.55;2.70;;;24.50;99.90;;;;;;12367488;28;20046;-38
2023/06/19 19:31:49;;;;;;;4.65;2.65;;;24.30;99.90;;;;;;12417134;28;20054;-39
2023/06/19 19:37:52;;;;;;;6.70;2.78;;;24.10;99.90;;;;;;12424318;28;20662;-38
2023/06/19 19:43:54;;;;;;;4.05;2.70;;;23.90;99.90;;;;;;12407794;28;20416;-39
2023/06/19 19:49:56;;;;;;;3.80;2.60;;;23.90;99.90;;;;;;12435276;28;20046;-39
2023/06/19 19:55:58;;;;;;;4.43;2.75;;;23.80;99.90;;;;;;12413966;28;20053;-39
2023/06/19 20:02:00;;;;;;;5.60;2.88;;;23.60;99.90;;;;;;12412867;28;20760;-38
2023/06/19 20:08:02;;;;;;;4.93;3.28;;;23.40;99.90;;;;;;12410346;28;20068;-38
2023/06/19 20:14:04;;;;;;;5.07;2.97;;;23.10;99.90;;;;;;12433668;28;20073;-38
2023/06/19 20:20:07;;;;;;;4.73;3.00;;;22.80;99.90;;;;;;12423206;28;20200;-39
2023/06/19 20:26:09;;;;;;;3.67;2.60;;;22.80;99.90;;;;;;12370206;28;20694;-38
2023/06/19 20:32:11;;;;;;;6.13;3.15;;;22.80;99.90;;;;;;12357897;28;20153;-38
2023/06/19 20:38:13;;;;;;;4.57;3.13;;;22.60;99.90;;;;;;12350808;28;20077;-38
2023/06/19 20:44:16;;;;;;;6.68;3.60;;;22.30;99.90;;;;;;12354303;28;20085;-38
2023/06/19 20:50:19;;;;;;;5.87;3.63;;;21.90;99.90;;;;;;12352208;28;20129;-37
2023/06/19 20:56:21;;;;;;;4.90;3.50;;;21.80;99.90;;;;;;12357071;28;20153;-39
2023/06/19 21:02:23;;;;;;;6.00;3.33;;;21.80;99.90;;;;;;12344892;28;20045;-37
2023/06/19 21:08:29;;;;;;;4.80;3.70;;;21.60;99.90;;;;;;12372097;28;20494;-37
2023/06/19 21:14:32;;;;;;;5.15;3.22;;;21.80;99.90;;;;;;12351903;28;20290;-40
2023/06/19 21:20:34;;;;;;;11.48;3.88;;;21.60;99.90;;;;;;12372920;28;20049;-37
2023/06/19 21:26:37;;;;;;;6.85;3.50;;;21.50;99.90;;;;;;12349796;28;20125;-38
2023/06/19 21:32:39;;;;;;;6.33;3.40;;;21.50;99.90;;;;;;12392186;28;20042;-38
2023/06/19 21:38:41;;;;;;;5.88;3.95;;;21.40;99.90;;;;;;12403313;28;20049;-38
2023/06/19 21:44:43;;;;;;;8.98;4.18;;;21.30;99.90;;;;;;12412917;28;20211;-38
2023/06/19 21:50:45;;;;;;;5.15;3.83;;;21.20;99.90;;;;;;12419910;28;20082;-38
2023/06/19 21:56:47;;;;;;;5.75;4.38;;;21.20;99.90;;;;;;12422481;28;20054;-38
2023/06/19 22:02:50;;;;;;;6.10;3.85;;;21.20;99.90;;;;;;12384420;28;20058;-39
2023/06/19 22:08:52;;;;;;;6.43;4.13;;;21.10;99.90;;;;;;12397257;28;20201;-38
2023/06/19 22:14:54;;;;;;;7.25;4.28;;;21.00;99.90;;;;;;12418922;28;20042;-37
2023/06/19 22:20:56;;;;;;;5.82;4.00;;;20.90;99.90;;;;;;12421517;28;20054;-38
2023/06/19 22:26:57;;;;;;;6.90;4.05;;;20.90;99.90;;;;;;12384823;28;20133;-38
2023/06/19 22:33:05;;;;;;;6.50;4.45;;;20.80;99.90;;;;;;12378228;28;20046;-38
2023/06/19 22:39:07;;;;;;;7.97;4.63;;;20.70;99.90;;;;;;12374701;28;20057;-38
2023/06/19 22:45:11;;;;;;;6.95;4.90;;;20.60;99.90;;;;;;12357603;28;20498;-38
2023/06/19 22:51:14;;;;;;;7.53;4.70;;;20.50;99.90;;;;;;12352184;28;20145;-38
2023/06/19 22:57:16;;;;;;;7.53;4.67;;;20.50;99.90;;;;;;12361961;28;20141;-38
2023/06/19 23:03:21;;;;;;;9.40;4.72;;;20.60;99.90;;;;;;12357059;28;20046;-38
2023/06/19 23:09:24;;;;;;;6.47;5.32;;;20.50;99.90;;;;;;12369726;28;20061;-39
2023/06/19 23:15:26;;;;;;;7.03;4.65;;;20.40;99.90;;;;;;12388174;28;20859;-38
2023/06/19 23:21:29;;;;;;;6.30;4.60;;;20.50;99.90;;;;;;12344152;28;20057;-38
2023/06/19 23:27:34;;;;;;;6.78;5.03;;;20.50;99.90;;;;;;12378090;28;20116;-38
2023/06/19 23:33:36;;;;;;;5.65;5.03;;;20.50;99.90;;;;;;12408039;28;20050;-38
2023/06/19 23:39:37;;;;;;;11.80;5.38;;;20.40;99.90;;;;;;12416176;28;20125;-38
2023/06/19 23:45:39;;;;;;;8.23;5.28;;;20.30;99.90;;;;;;12419626;28;20076;-38
2023/06/19 23:51:41;;;;;;;7.45;5.25;;;20.30;99.90;;;;;;12414682;28;20069;-38
2023/06/19 23:57:43;;;;;;;6.25;4.75;;;20.20;99.90;;;;;;12407958;28;20547;-38
